x

San Francisco - 18nm West Of San Francisco, Ca (46026) Wave Buoy

8:50pm - Mon 25th Jul 2016 All times are PDT. -7 hours from GMT.

  • Sig Wave height 4.9ft
  • Swell Direction
  • Peak Period 8s
  • Average Period 6s
  • Wind
    4mph, 7mph gusts
  • Sea Temp 54°f
  • Air Temp 51°f
  • Sea Pressure 1013.5mb
  • San Francisco - 18nm West Of San Francisco, Ca
  • San Francisco - 18nm West Of San Francisco, Ca

More Historic Weather Station data

Upgrade to MSW Pro to gain access to the past 30 days of data for over 8000 Wavebouys and Weather Stations around the globe.

Join Pro

Comparision Forecast

View Surf forecast
   
Mon 07/25 8:50pm 5ft 8s 6s 4 7 mph 1013.5mb 54f 51f
7:50pm 5ft 8s 7s 7 9 mph 1013.4mb 54f 51f
6:50pm 5.5ft 9s 7s 7 9 mph 1013.3mb 54f 51f
5:50pm 5.5ft 8s 7s 7 9 mph 1013.5mb 55f 51f
4:50pm 6.5ft 8s 7s 4 7 mph 1013.7mb 55f 51f
3:50pm 6ft 9s 7s 9 11 mph 1013.9mb 55f 51f
2:50pm 6.5ft 9s 7s 7 9 mph 1014.2mb 55f 51f
1:50pm 5.5ft 9s 7s 9 13 mph 1014.4mb 55f 52f
12:50pm 6ft 9s 7s 7 9 mph 1014.9mb 54f 52f
10:50am 6ft 9s 7s 7 9 mph 1014.7mb 53f 52f
9:50am 6.5ft 8s 7s 9 11 mph 1014.8mb 54f 52f
8:50am 6ft 9s 7s 7
mph
1014.8mb 54f 52f
7:50am 7ft 9s 7s 7 9 mph 1014.2mb 53f 51f
6:50am 8ft 8s 7s 4 7 mph 1013.4mb 52f 49f
5:50am 7ft 9s 7s 11 16 mph 1012.9mb 52f 50f
4:50am 7.5ft 9s 7s 13 16 mph 1013.1mb 52f 52f
3:50am 7ft 8s 6s 13 16 mph 1013.3mb 53f 52f
2:50am 7ft 9s 7s 13 16 mph 1013.4mb 53f 52f
1:50am 7ft 9s 6s 16 18 mph 1013.4mb 53f 53f
12:50am 7.5ft 8s 7s 13 18 mph 1013.5mb 54f 53f
Sun 07/24 11:50pm 7.5ft 8s 7s 13 18 mph 1013.5mb 54f 54f
10:50pm 7ft 8s 6s 16 18 mph 1013.4mb 53f 54f
9:50pm 7ft 9s 7s 16 18 mph 1013mb 54f 55f
8:50pm 7ft 9s 7s 9 11 mph 1012.7mb 54f 54f
7:50pm 6ft 8s 6s 13 16 mph 1012.7mb 53f 54f
6:50pm 7ft 8s 7s 13 16 mph 1012.6mb 52f 54f
5:50pm 7ft 9s 6s 16 20 mph 1012.6mb 51f 53f
4:50pm 7ft 9s 6s 16 20 mph 1012.9mb 51f 53f
3:50pm 7ft 9s 7s 18 22 mph 1012.7mb 51f 53f
2:50pm 7ft 8s 7s 20 22 mph 1012.9mb 52f 52f
1:50pm 7.5ft 9s 7s 20 22 mph 1013mb 52f 52f
12:50pm 7.5ft 9s 7s 20 22 mph 1013mb 52f 52f
11:50am 7ft 9s 6s 18 22 mph 1012.9mb 52f 52f
10:50am 8ft 9s 7s 18 20 mph 1013mb 52f 51f
9:50am 7ft 9s 6s 16 20 mph 1012.6mb 52f 51f
8:50am 7ft 8s 6s 16 18 mph 1012.1mb 52f 51f
7:50am 7ft 8s 7s 18 22 mph 1011.8mb 52f 51f
6:50am 7ft 8s 7s 13 18 mph 1011.2mb 51f 52f
5:50am 7ft 9s 7s 13 16 mph 1010.8mb 51f 53f
4:50am 7ft 8s 7s 9 11 mph 1010.7mb 50f 52f
3:50am 7.5ft 9s 7s 9 11 mph 1010.6mb 50f 52f
2:50am 7ft 8s 6s 11 13 mph 1010.6mb 50f 53f
1:50am 8ft 9s 7s 13 16 mph 1011mb 50f 53f
12:50am 7ft 8s 7s 13 16 mph 1011.4mb 51f 53f
Sat 07/23 11:50pm 7ft 8s 6s 11 13 mph 1011.7mb 51f 53f
10:50pm 7.5ft 8s 6s 16 18 mph 1011.8mb 51f 54f
9:50pm 7ft 8s 6s 16 20 mph 1012.1mb 51f 54f
8:50pm 8ft 8s 7s 18 22 mph 1011.8mb 51f 54f
7:50pm 8ft 9s 6s 16 20 mph 1011.9mb 52f 55f
6:50pm 7ft 8s 6s 20 25 mph 1011.8mb 52f 55f
5:50pm 7ft 8s 7s 13 18 mph 1013.1mb 52f 55f
4:50pm 6.5ft 9s 6s 18 20 mph 1013.5mb 52f 54f
3:50pm 7ft 9s 6s 18 22 mph 1013.8mb 52f 54f
2:50pm 6.5ft 8s 6s 22 29 mph 1014.3mb 52f 53f
1:50pm 6.5ft 8s 6s 25 27 mph 1015.1mb 52f 52f
12:50pm 6ft 8s 6s 22 27 mph 1015.8mb 52f 52f
11:50am 6ft 8s 6s 16 20 mph 1016.1mb 52f 52f
10:50am 6.5ft 8s 6s 20 25 mph 1016.2mb 52f 51f
9:50am 6ft 8s 6s 20 25 mph 1016.3mb 52f 52f
8:50am 6ft 8s 6s 20 25 mph 1016mb 52f 53f
7:50am 6ft 9s 6s 16 20 mph 1015.9mb 52f 53f
6:50am 6ft 8s 6s 13 16 mph 1015.8mb 52f 53f
5:50am 6ft 8s 6s 13 16 mph 1015.4mb 53f 53f
4:50am 6ft 8s 6s 11 13 mph 1015.3mb 53f 54f
3:50am 5.5ft 9s 6s 13 16 mph 1015.3mb 53f 54f
2:50am 6ft 7s 6s 9 11 mph 1015.9mb 53f 54f
1:50am 5.5ft 7s 6s 18 20 mph 1015.6mb 53f 54f
12:50am 6ft 8s 5s 13 18 mph 1016.4mb 53f 55f
Fri 07/22 11:50pm 6ft 7s 6s 22 27 mph 1016.1mb 53f 55f
10:50pm 5.5ft 7s 6s 20 22 mph 1016.9mb 54f 55f
9:50pm 5.5ft 7s 6s 16 20 mph 1017.2mb 54f 55f
8:50pm 5ft 7s 6s 16 20 mph 1017.2mb 54f 56f
7:50pm 5ft 6s 6s 13 16 mph 1017.5mb 54f 56f
6:50pm 4.5ft 6s 6s 16 18 mph 1017.9mb 55f 56f
5:50pm 4.5ft 16s 5s 11 13 mph 1018.4mb 55f 56f
4:50pm 4.5ft 7s 6s 13 16 mph 1018.9mb 54f 56f
3:50pm 4ft 8s 5s 11 13 mph 1019.7mb 55f 55f
2:50pm 4ft 6s 6s 13 16 mph 1020.3mb 54f 55f
1:50pm 4ft 6s 5s 11 13 mph 1020.8mb 54f 53f
12:50pm 4ft 6s 5s 13 16 mph 1021.1mb 54f 53f
10:50am 3.5ft 6s 5s 13 16 mph 1021.1mb 54f 52f
9:50am 3.5ft 15s 5s 13
mph
1020.8mb 54f 52f
8:50am 3.5ft 6s 5s 11 13 mph 1020.5mb 54f 53f
7:50am 3.5ft 14s 5s 16 18 mph 1019.7mb 54f 53f
6:50am 3.5ft 16s 5s 16 18 mph 1019.2mb 54f 53f
5:50am 4ft 5s 5s 20 22 mph 1018.7mb 54f 53f
4:50am 4.5ft 6s 5s 20 22 mph 1018.7mb 54f 54f